createdAt,value
2018-07-31T00:00:23.165Z,0.00
2018-07-31T00:01:23.169Z,0.00
2018-07-31T00:02:23.173Z,0.00
2018-07-31T00:03:23.210Z,0.00
2018-07-31T00:04:23.180Z,0.00
2018-07-31T00:05:23.187Z,0.00
2018-07-31T00:06:23.189Z,0.00
2018-07-31T00:07:23.192Z,0.00
2018-07-31T00:08:23.194Z,0.00
2018-07-31T00:09:23.199Z,0.00
2018-07-31T00:10:23.211Z,0.00
2018-07-31T00:11:23.208Z,0.00
2018-07-31T00:12:23.210Z,0.00
2018-07-31T00:13:23.213Z,0.00
2018-07-31T00:14:23.218Z,0.00
2018-07-31T00:15:23.223Z,0.00
2018-07-31T00:16:23.226Z,0.00
2018-07-31T00:17:23.230Z,0.00
2018-07-31T00:18:23.233Z,0.00
2018-07-31T00:19:23.237Z,0.00
2018-07-31T00:20:23.241Z,0.00
2018-07-31T00:21:23.245Z,0.00
2018-07-31T00:22:23.247Z,0.00
2018-07-31T00:23:23.251Z,0.00
2018-07-31T00:24:23.255Z,0.00
2018-07-31T00:25:23.259Z,0.00
2018-07-31T00:26:23.262Z,0.00
2018-07-31T00:27:23.265Z,0.00
2018-07-31T00:28:23.271Z,0.00
2018-07-31T00:29:23.273Z,0.00
2018-07-31T00:30:23.278Z,0.00
2018-07-31T00:31:23.281Z,0.00
2018-07-31T00:32:23.285Z,0.00
2018-07-31T00:33:23.291Z,0.00
2018-07-31T00:34:23.292Z,0.00
2018-07-31T00:35:23.295Z,0.00
2018-07-31T00:36:23.300Z,0.00
2018-07-31T00:37:23.304Z,0.00
2018-07-31T00:38:23.307Z,0.00
2018-07-31T00:39:23.311Z,0.00
2018-07-31T00:40:23.314Z,0.00
2018-07-31T00:41:23.320Z,0.00
2018-07-31T00:42:23.321Z,0.00
2018-07-31T00:43:23.324Z,0.00
2018-07-31T00:44:23.330Z,0.00
2018-07-31T00:45:23.333Z,0.00
2018-07-31T00:46:23.337Z,0.00
2018-07-31T00:47:23.339Z,0.00
2018-07-31T00:48:23.342Z,0.00
2018-07-31T00:49:23.346Z,0.00
2018-07-31T00:50:23.350Z,0.00
2018-07-31T00:51:23.352Z,0.00
2018-07-31T00:52:23.355Z,0.00
2018-07-31T00:53:23.359Z,0.00
2018-07-31T00:54:23.362Z,0.00
2018-07-31T00:55:23.371Z,0.00
2018-07-31T00:56:23.370Z,0.00
2018-07-31T00:57:23.373Z,0.00
2018-07-31T00:58:23.376Z,0.00
2018-07-31T00:59:23.380Z,0.00
2018-07-31T01:00:23.384Z,0.00
2018-07-31T01:01:23.388Z,0.00
2018-07-31T01:02:23.390Z,0.00
2018-07-31T01:03:23.394Z,0.00
2018-07-31T01:04:23.399Z,0.00
2018-07-31T01:05:23.401Z,0.00
2018-07-31T01:06:23.404Z,0.00
2018-07-31T01:07:23.408Z,0.00
2018-07-31T01:08:23.411Z,0.00
2018-07-31T01:09:23.415Z,0.00
2018-07-31T01:10:23.419Z,0.00
2018-07-31T01:11:23.425Z,0.00
2018-07-31T01:12:23.426Z,0.00
2018-07-31T01:13:23.429Z,0.00
2018-07-31T01:14:23.432Z,0.00
2018-07-31T01:15:23.445Z,0.00
2018-07-31T01:16:23.439Z,0.00
2018-07-31T01:17:23.444Z,0.00
2018-07-31T01:18:23.445Z,0.00
2018-07-31T01:19:23.450Z,0.00
2018-07-31T01:20:23.452Z,0.00
2018-07-31T01:21:23.457Z,0.00
2018-07-31T01:22:23.459Z,0.00
2018-07-31T01:23:23.462Z,0.00
2018-07-31T01:24:23.467Z,0.00
2018-07-31T01:25:23.469Z,0.00
2018-07-31T01:26:23.472Z,0.00
2018-07-31T01:27:23.476Z,0.00
2018-07-31T01:28:23.480Z,0.00
2018-07-31T01:29:23.483Z,0.00
2018-07-31T01:30:23.485Z,0.00
2018-07-31T01:31:23.489Z,0.00
2018-07-31T01:32:23.492Z,0.00
2018-07-31T01:33:23.499Z,0.00
2018-07-31T01:34:23.498Z,0.00
2018-07-31T01:35:23.501Z,0.00
2018-07-31T01:36:23.505Z,0.00
2018-07-31T01:37:23.508Z,0.00
2018-07-31T01:38:23.511Z,0.00
2018-07-31T01:39:23.514Z,0.00
2018-07-31T01:40:23.518Z,0.00
2018-07-31T01:41:23.522Z,0.00
2018-07-31T01:42:23.523Z,0.00
2018-07-31T01:43:23.527Z,0.00
2018-07-31T01:44:23.531Z,0.00
2018-07-31T01:45:23.533Z,0.00
2018-07-31T01:46:23.537Z,0.00
2018-07-31T01:47:23.543Z,0.00
2018-07-31T01:48:23.543Z,0.00
2018-07-31T01:49:23.546Z,0.00
2018-07-31T01:50:23.550Z,0.00
2018-07-31T01:51:23.552Z,0.00
2018-07-31T01:52:23.561Z,0.00
2018-07-31T01:53:23.560Z,0.00
2018-07-31T01:54:23.563Z,0.00
2018-07-31T01:55:23.565Z,0.00
2018-07-31T01:56:23.571Z,0.00
2018-07-31T01:57:23.573Z,0.00
2018-07-31T01:58:23.575Z,0.00
2018-07-31T01:59:23.578Z,0.00
2018-07-31T02:00:23.581Z,0.00
2018-07-31T02:01:23.585Z,0.00
2018-07-31T02:02:23.587Z,0.00
2018-07-31T02:03:23.590Z,0.00
2018-07-31T02:04:23.593Z,0.00
2018-07-31T02:05:23.598Z,0.00
2018-07-31T02:06:23.600Z,0.00
2018-07-31T02:07:23.603Z,0.00
2018-07-31T02:08:23.607Z,0.00
2018-07-31T02:09:23.610Z,0.00
2018-07-31T02:10:23.631Z,0.00
2018-07-31T02:11:23.616Z,0.00
2018-07-31T02:12:23.618Z,0.00
2018-07-31T02:13:23.622Z,0.00
2018-07-31T02:14:23.625Z,0.00
2018-07-31T02:15:23.628Z,0.00
2018-07-31T02:16:23.631Z,0.00
2018-07-31T02:17:23.709Z,0.00
2018-07-31T02:18:23.637Z,0.00
2018-07-31T02:19:23.641Z,0.00
2018-07-31T02:20:23.644Z,0.00
2018-07-31T02:21:23.647Z,0.00
2018-07-31T02:22:23.650Z,0.00
2018-07-31T02:23:23.653Z,0.00
2018-07-31T02:24:23.656Z,0.00
2018-07-31T02:25:23.660Z,0.00
2018-07-31T02:26:23.660Z,0.00
2018-07-31T02:27:23.665Z,0.00
2018-07-31T02:28:23.803Z,0.00
2018-07-31T02:29:23.670Z,0.00
2018-07-31T02:30:23.673Z,0.00
2018-07-31T02:31:23.678Z,0.00
2018-07-31T02:32:23.681Z,0.00
2018-07-31T02:33:23.683Z,0.00
2018-07-31T02:34:23.686Z,0.00
2018-07-31T02:35:23.690Z,0.00
2018-07-31T02:36:23.692Z,0.00
2018-07-31T02:37:23.696Z,0.00
2018-07-31T02:38:23.698Z,0.00
2018-07-31T02:39:23.702Z,0.00
2018-07-31T02:40:23.704Z,0.00
2018-07-31T02:41:23.708Z,0.00
2018-07-31T02:42:23.709Z,0.00
2018-07-31T02:43:23.713Z,0.00
2018-07-31T02:44:23.718Z,0.00
2018-07-31T02:45:23.720Z,0.00
2018-07-31T02:46:23.722Z,0.00
2018-07-31T02:47:23.724Z,0.00
2018-07-31T02:48:23.728Z,0.00
2018-07-31T02:49:23.731Z,0.00
2018-07-31T02:50:23.733Z,0.00
2018-07-31T02:51:23.737Z,0.00
2018-07-31T02:52:23.739Z,0.00
2018-07-31T02:53:23.744Z,0.00
2018-07-31T02:54:23.744Z,0.00
2018-07-31T02:55:23.747Z,0.00
2018-07-31T02:56:23.751Z,0.00
2018-07-31T02:57:23.754Z,0.00
2018-07-31T02:58:23.757Z,0.00
2018-07-31T02:59:23.759Z,0.00
2018-07-31T03:00:23.760Z,0.00
2018-07-31T03:01:23.765Z,0.00
2018-07-31T03:02:23.768Z,0.00
2018-07-31T03:03:23.770Z,0.00
2018-07-31T03:04:23.773Z,0.00
2018-07-31T03:05:23.777Z,0.00
2018-07-31T03:06:23.779Z,0.00
2018-07-31T03:07:23.781Z,0.00
2018-07-31T03:08:23.785Z,0.00
2018-07-31T03:09:23.788Z,0.00
2018-07-31T03:10:23.789Z,0.00
2018-07-31T03:11:23.795Z,0.00
2018-07-31T03:12:23.796Z,0.00
2018-07-31T03:13:23.799Z,0.00
2018-07-31T03:14:23.801Z,0.00
2018-07-31T03:15:23.804Z,0.00
2018-07-31T03:16:23.807Z,0.00
2018-07-31T03:17:23.809Z,0.00
2018-07-31T03:18:23.812Z,0.00
2018-07-31T03:19:23.814Z,0.00
2018-07-31T03:20:23.818Z,0.00
2018-07-31T03:21:23.821Z,0.00
2018-07-31T03:22:23.823Z,4.00
2018-07-31T03:23:23.825Z,0.00
2018-07-31T03:24:23.828Z,0.00
2018-07-31T03:25:23.836Z,4.00
2018-07-31T03:26:23.834Z,4.00
2018-07-31T03:27:23.837Z,4.00
2018-07-31T03:28:23.844Z,4.00
2018-07-31T03:29:23.844Z,4.00
2018-07-31T03:30:23.846Z,4.00
2018-07-31T03:31:23.848Z,4.00
2018-07-31T03:32:23.851Z,8.00
2018-07-31T03:33:23.853Z,8.00
2018-07-31T03:34:23.855Z,8.00
2018-07-31T03:35:23.859Z,8.00
2018-07-31T03:36:23.862Z,12.00
2018-07-31T03:37:23.868Z,12.00
2018-07-31T03:38:23.867Z,16.00
2018-07-31T03:39:23.869Z,16.00
2018-07-31T03:40:23.873Z,16.00
2018-07-31T03:41:23.876Z,20.00
2018-07-31T03:42:23.876Z,24.00
2018-07-31T03:43:23.880Z,28.00
2018-07-31T03:44:23.882Z,28.00
2018-07-31T03:45:23.884Z,32.00
2018-07-31T03:46:23.887Z,36.00
2018-07-31T03:47:23.891Z,36.00
2018-07-31T03:48:23.893Z,44.00
2018-07-31T03:49:23.895Z,48.00
2018-07-31T03:50:23.898Z,52.00
2018-07-31T03:51:23.900Z,56.00
2018-07-31T03:52:23.902Z,60.00
2018-07-31T03:53:23.906Z,68.00
2018-07-31T03:54:23.909Z,72.00
2018-07-31T03:55:23.911Z,80.00
2018-07-31T03:56:23.949Z,80.00
2018-07-31T03:57:23.919Z,92.00
2018-07-31T03:58:23.919Z,96.00
2018-07-31T03:59:23.922Z,104.00
2018-07-31T04:00:23.924Z,112.00
2018-07-31T04:01:23.928Z,120.00
2018-07-31T04:02:23.929Z,124.00
2018-07-31T04:03:23.931Z,132.00
2018-07-31T04:04:23.933Z,144.00
2018-07-31T04:05:23.979Z,152.00
2018-07-31T04:06:23.939Z,160.00
2018-07-31T04:07:23.942Z,172.00
2018-07-31T04:08:23.945Z,176.00
2018-07-31T04:09:23.948Z,184.00
2018-07-31T04:10:23.950Z,196.00
2018-07-31T04:11:23.954Z,208.00
2018-07-31T04:12:23.955Z,212.00
2018-07-31T04:13:23.960Z,224.00
2018-07-31T04:14:23.960Z,236.00
2018-07-31T04:15:23.962Z,244.00
2018-07-31T04:16:23.965Z,256.00
2018-07-31T04:17:23.968Z,268.00
2018-07-31T04:18:23.971Z,276.00
2018-07-31T04:19:23.973Z,288.00
2018-07-31T04:20:23.975Z,296.00
2018-07-31T04:21:23.979Z,308.00
2018-07-31T04:22:23.979Z,320.00
2018-07-31T04:23:23.984Z,336.00
2018-07-31T04:24:23.987Z,344.00
2018-07-31T04:25:23.989Z,356.00
2018-07-31T04:26:23.995Z,364.00
2018-07-31T04:27:23.993Z,376.00
2018-07-31T04:28:23.996Z,388.00
2018-07-31T04:29:24.000Z,404.00
2018-07-31T04:30:24.001Z,416.00
2018-07-31T04:31:24.008Z,428.00
2018-07-31T04:32:24.008Z,440.00
2018-07-31T04:33:24.010Z,452.00
2018-07-31T04:34:24.014Z,460.00
2018-07-31T04:35:24.016Z,476.00
2018-07-31T04:36:24.018Z,488.00
2018-07-31T04:37:24.021Z,500.00
2018-07-31T04:38:24.023Z,508.00
2018-07-31T04:39:24.025Z,524.00
2018-07-31T04:40:24.032Z,536.00
2018-07-31T04:41:24.030Z,544.00
2018-07-31T04:42:24.056Z,556.00
2018-07-31T04:43:24.036Z,572.00
2018-07-31T04:44:24.039Z,584.00
2018-07-31T04:45:24.042Z,596.00
2018-07-31T04:46:24.044Z,608.00
2018-07-31T04:47:24.045Z,620.00
2018-07-31T04:48:24.048Z,632.00
2018-07-31T04:49:24.051Z,648.00
2018-07-31T04:50:24.084Z,660.00
2018-07-31T04:51:24.056Z,672.00
2018-07-31T04:52:24.059Z,688.00
2018-07-31T04:53:24.061Z,704.00
2018-07-31T04:54:24.063Z,720.00
2018-07-31T04:55:24.066Z,740.00
2018-07-31T04:56:24.070Z,756.00
2018-07-31T04:57:24.071Z,776.00
2018-07-31T04:58:24.074Z,788.00
2018-07-31T04:59:24.125Z,804.00
2018-07-31T05:00:24.079Z,828.00
2018-07-31T05:01:24.082Z,848.00
2018-07-31T05:02:24.085Z,860.00
2018-07-31T05:03:24.086Z,880.00
2018-07-31T05:04:24.136Z,900.00
2018-07-31T05:05:24.092Z,920.00
2018-07-31T05:06:24.096Z,940.00
2018-07-31T05:07:24.098Z,960.00
2018-07-31T05:08:24.102Z,980.00
2018-07-31T05:09:24.103Z,996.00
2018-07-31T05:10:24.106Z,1020.00
2018-07-31T05:11:24.111Z,1040.00
2018-07-31T05:12:24.112Z,1064.00
2018-07-31T05:13:24.114Z,1080.00
2018-07-31T05:14:24.116Z,1104.00
2018-07-31T05:15:24.119Z,1128.00
2018-07-31T05:16:24.123Z,1148.00
2018-07-31T05:17:24.125Z,1172.00
2018-07-31T05:18:24.142Z,1192.00
2018-07-31T05:19:24.130Z,1212.00
2018-07-31T05:20:24.132Z,1236.00
2018-07-31T05:21:24.138Z,1256.00
2018-07-31T05:22:24.138Z,1276.00
2018-07-31T05:23:24.142Z,1300.00
2018-07-31T05:24:24.143Z,1320.00
2018-07-31T05:25:24.148Z,1340.00
2018-07-31T05:26:24.159Z,1364.00
2018-07-31T05:27:24.153Z,1384.00
2018-07-31T05:28:24.159Z,1404.00
2018-07-31T05:29:24.159Z,1420.00
2018-07-31T05:30:24.161Z,1440.00
2018-07-31T05:31:24.163Z,1460.00
2018-07-31T05:32:24.212Z,1484.00
2018-07-31T05:33:24.170Z,1504.00
2018-07-31T05:34:24.173Z,1524.00
2018-07-31T05:35:24.178Z,1548.00
2018-07-31T05:36:24.180Z,1560.00
2018-07-31T05:37:24.183Z,1580.00
2018-07-31T05:38:24.185Z,1604.00
2018-07-31T05:39:24.188Z,1624.00
2018-07-31T05:40:24.193Z,1644.00
2018-07-31T05:41:24.196Z,1664.00
2018-07-31T05:42:24.197Z,1688.00
2018-07-31T05:43:24.201Z,1712.00
2018-07-31T05:44:24.204Z,1728.00
2018-07-31T05:45:24.208Z,1748.00
2018-07-31T05:46:24.210Z,1772.00
2018-07-31T05:47:24.214Z,1796.00
2018-07-31T05:48:24.217Z,1816.00
2018-07-31T05:49:24.221Z,1836.00
2018-07-31T05:50:24.223Z,1856.00
2018-07-31T05:51:24.227Z,1880.00
2018-07-31T05:52:24.231Z,1896.00
2018-07-31T05:53:24.233Z,1920.00
2018-07-31T05:54:24.236Z,1940.00
2018-07-31T05:55:24.240Z,1968.00
2018-07-31T05:56:24.244Z,1988.00
2018-07-31T05:57:24.297Z,2008.00
2018-07-31T05:58:24.249Z,2008.00
2018-07-31T05:59:24.253Z,2056.00
2018-07-31T06:00:24.260Z,2080.00
2018-07-31T06:01:24.262Z,2100.00
2018-07-31T06:02:24.264Z,2120.00
2018-07-31T06:03:24.308Z,2144.00
2018-07-31T06:04:24.272Z,2164.00
2018-07-31T06:05:24.276Z,2188.00
2018-07-31T06:06:24.279Z,2212.00
2018-07-31T06:07:24.281Z,2236.00
2018-07-31T06:08:24.286Z,2256.00
2018-07-31T06:09:24.290Z,2284.00
2018-07-31T06:10:24.294Z,2304.00
2018-07-31T06:11:24.335Z,2324.00
2018-07-31T06:12:24.341Z,2348.00
2018-07-31T06:13:24.351Z,2372.00
2018-07-31T06:14:24.429Z,2400.00
2018-07-31T06:15:24.457Z,2420.00
2018-07-31T06:16:24.319Z,2440.00
2018-07-31T06:17:24.321Z,2468.00
2018-07-31T06:18:24.326Z,2492.00
2018-07-31T06:19:24.327Z,2524.00
2018-07-31T06:20:24.332Z,2540.00
2018-07-31T06:21:24.336Z,2564.00
2018-07-31T06:22:24.342Z,2584.00
2018-07-31T06:23:24.342Z,2616.00
2018-07-31T06:24:24.347Z,2632.00
2018-07-31T06:25:24.351Z,2660.00
2018-07-31T06:26:24.353Z,2684.00
2018-07-31T06:27:24.359Z,2716.00
2018-07-31T06:28:24.363Z,2740.00
2018-07-31T06:29:24.367Z,2764.00
2018-07-31T06:30:24.372Z,2792.00
2018-07-31T06:31:24.373Z,2812.00
2018-07-31T06:32:24.378Z,2844.00
2018-07-31T06:33:24.384Z,2864.00
2018-07-31T06:34:24.386Z,2888.00
2018-07-31T06:35:24.392Z,2912.00
2018-07-31T06:36:24.395Z,2936.00
2018-07-31T06:37:24.406Z,2956.00
2018-07-31T06:38:24.402Z,2980.00
2018-07-31T06:39:24.410Z,3004.00
2018-07-31T06:40:24.460Z,3016.00
2018-07-31T06:41:24.416Z,2972.00
2018-07-31T06:42:24.419Z,2956.00
2018-07-31T06:43:24.535Z,2964.00
2018-07-31T06:44:24.429Z,3068.00
2018-07-31T06:45:24.432Z,3048.00
2018-07-31T06:46:24.437Z,3036.00
2018-07-31T06:47:24.441Z,3104.00
2018-07-31T06:48:24.448Z,3132.00
2018-07-31T06:49:24.487Z,3140.00
2018-07-31T06:50:24.454Z,3156.00
2018-07-31T06:51:24.458Z,3292.00
2018-07-31T06:52:24.464Z,3316.00
2018-07-31T06:53:24.468Z,3344.00
2018-07-31T06:54:24.472Z,3360.00
2018-07-31T06:55:24.477Z,3396.00
2018-07-31T06:56:24.482Z,3416.00
2018-07-31T06:57:24.485Z,3444.00
2018-07-31T06:58:24.491Z,3476.00
2018-07-31T06:59:24.496Z,3508.00
2018-07-31T07:00:24.503Z,3528.00
2018-07-31T07:01:24.505Z,3560.00
2018-07-31T07:02:24.509Z,3580.00
2018-07-31T07:03:24.514Z,3604.00
2018-07-31T07:04:24.520Z,3624.00
2018-07-31T07:05:24.524Z,3656.00
2018-07-31T07:06:24.529Z,3684.00
2018-07-31T07:07:24.533Z,3704.00
2018-07-31T07:08:24.799Z,3740.00
2018-07-31T07:09:24.611Z,3768.00
2018-07-31T07:10:24.550Z,3796.00
2018-07-31T07:11:24.552Z,3820.00
2018-07-31T07:12:24.558Z,3864.00
2018-07-31T07:13:24.562Z,4928.00
2018-07-31T07:14:24.567Z,29472.00
2018-07-31T07:15:24.625Z,69888.00
2018-07-31T07:16:24.582Z,92672.00
2018-07-31T07:17:24.585Z,83616.00
2018-07-31T07:18:24.589Z,90880.00
2018-07-31T07:19:24.601Z,78976.00
2018-07-31T07:20:24.605Z,11656.00
2018-07-31T07:21:24.613Z,3740.00
2018-07-31T07:22:24.620Z,12008.00
2018-07-31T07:23:24.627Z,8440.00
2018-07-31T07:24:24.636Z,10136.00
2018-07-31T07:25:24.645Z,10720.00
2018-07-31T07:26:24.671Z,7996.00
2018-07-31T07:27:24.662Z,5492.00
2018-07-31T07:28:24.669Z,7136.00
2018-07-31T07:29:24.679Z,6396.00
2018-07-31T07:30:24.685Z,9944.00
2018-07-31T07:31:24.693Z,12544.00
2018-07-31T07:32:24.701Z,7004.00
2018-07-31T07:33:24.708Z,5592.00
2018-07-31T07:34:24.829Z,5720.00
2018-07-31T07:35:24.726Z,5592.00
2018-07-31T07:36:24.734Z,12288.00
2018-07-31T07:37:24.742Z,42176.00
2018-07-31T07:38:24.752Z,28928.00
2018-07-31T07:39:24.760Z,10112.00
2018-07-31T07:40:24.769Z,30912.00
2018-07-31T07:41:24.776Z,38944.00
2018-07-31T07:42:24.786Z,27104.00
2018-07-31T07:43:24.793Z,18208.00
2018-07-31T07:44:24.802Z,26048.00
2018-07-31T07:45:24.814Z,42400.00
2018-07-31T07:46:24.819Z,55328.00
2018-07-31T07:47:24.831Z,39552.00
2018-07-31T07:48:24.848Z,25664.00
2018-07-31T07:49:24.900Z,19552.00
2018-07-31T07:50:24.858Z,17184.00
2018-07-31T07:51:24.875Z,12928.00
2018-07-31T07:52:24.918Z,14324.00
2018-07-31T07:53:24.888Z,8156.00
2018-07-31T07:54:24.933Z,5640.00
2018-07-31T07:55:24.906Z,7460.00
2018-07-31T07:56:24.923Z,20128.00
2018-07-31T07:57:24.926Z,16448.00
2018-07-31T07:58:24.935Z,24864.00
2018-07-31T07:59:24.953Z,33952.00
2018-07-31T08:00:24.953Z,29504.00
2018-07-31T08:01:24.962Z,34144.00
2018-07-31T08:02:24.972Z,16160.00
2018-07-31T08:03:24.981Z,21408.00
2018-07-31T08:04:24.999Z,59776.00
2018-07-31T08:05:25.001Z,67840.00
2018-07-31T08:06:25.013Z,24800.00
2018-07-31T08:07:25.024Z,35360.00
2018-07-31T08:08:25.034Z,57856.00
2018-07-31T08:09:25.045Z,69376.00
2018-07-31T08:10:25.059Z,50624.00
2018-07-31T08:11:25.070Z,31904.00
2018-07-31T08:12:25.084Z,58528.00
2018-07-31T08:13:25.096Z,72832.00
2018-07-31T08:14:25.110Z,72256.00
2018-07-31T08:15:25.122Z,73888.00
2018-07-31T08:16:25.136Z,67680.00
2018-07-31T08:17:25.150Z,60800.00
2018-07-31T08:18:25.165Z,62816.00
2018-07-31T08:19:25.179Z,62080.00
2018-07-31T08:20:25.254Z,63552.00
2018-07-31T08:21:25.210Z,65536.00
2018-07-31T08:22:25.223Z,63392.00
2018-07-31T08:23:25.298Z,73504.00
2018-07-31T08:24:25.254Z,69984.00
2018-07-31T08:25:25.272Z,70208.00
2018-07-31T08:26:25.290Z,70848.00
2018-07-31T08:27:25.303Z,56640.00
2018-07-31T08:28:25.320Z,39616.00
2018-07-31T08:29:25.336Z,46784.00
2018-07-31T08:30:25.351Z,63712.00
2018-07-31T08:31:25.369Z,57184.00
2018-07-31T08:32:25.387Z,57088.00
2018-07-31T08:33:25.437Z,63136.00
2018-07-31T08:34:25.431Z,67424.00
2018-07-31T08:35:25.436Z,69696.00
2018-07-31T08:36:25.453Z,69376.00
2018-07-31T08:37:25.473Z,67232.00
2018-07-31T08:38:25.491Z,65728.00
2018-07-31T08:39:25.506Z,64992.00
2018-07-31T08:40:25.523Z,63200.00
2018-07-31T08:41:25.561Z,61856.00
2018-07-31T08:42:25.559Z,62944.00
2018-07-31T08:43:25.602Z,59360.00
2018-07-31T08:44:25.596Z,35744.00
2018-07-31T08:45:25.612Z,43648.00
2018-07-31T08:46:25.629Z,58496.00
2018-07-31T08:47:25.647Z,56416.00
2018-07-31T08:48:25.665Z,59168.00
2018-07-31T08:49:25.685Z,62752.00
2018-07-31T08:50:25.702Z,62720.00
2018-07-31T08:51:25.720Z,59488.00
2018-07-31T08:52:25.739Z,60064.00
2018-07-31T08:53:25.758Z,62144.00
2018-07-31T08:54:25.777Z,60448.00
2018-07-31T08:55:25.795Z,59232.00
2018-07-31T08:56:26.072Z,59872.00
2018-07-31T08:57:25.835Z,59872.00
2018-07-31T08:58:25.850Z,60512.00
2018-07-31T08:59:25.870Z,55584.00
2018-07-31T09:00:25.888Z,56544.00
2018-07-31T09:01:25.906Z,58272.00
2018-07-31T09:02:25.924Z,54048.00
2018-07-31T09:03:25.941Z,57632.00
2018-07-31T09:04:25.961Z,59264.00
2018-07-31T09:05:25.978Z,57184.00
2018-07-31T09:06:26.213Z,56704.00
2018-07-31T09:07:26.040Z,55872.00
2018-07-31T09:08:26.121Z,57472.00
2018-07-31T09:09:26.052Z,55584.00
2018-07-31T09:10:26.070Z,54880.00
2018-07-31T09:11:26.351Z,57440.00
2018-07-31T09:12:26.108Z,58656.00
2018-07-31T09:13:26.124Z,57184.00
2018-07-31T09:14:26.216Z,55072.00
2018-07-31T09:15:26.160Z,56384.00
2018-07-31T09:16:26.179Z,56256.00
2018-07-31T09:17:26.231Z,54912.00
2018-07-31T09:18:26.217Z,54176.00
2018-07-31T09:19:26.233Z,54688.00
2018-07-31T09:20:26.253Z,55200.00
2018-07-31T09:21:26.270Z,55232.00
2018-07-31T09:22:26.288Z,54560.00
2018-07-31T09:23:26.305Z,56064.00
2018-07-31T09:24:26.399Z,54688.00
2018-07-31T09:25:26.342Z,53888.00
2018-07-31T09:26:26.360Z,53888.00
2018-07-31T09:27:26.378Z,52928.00
2018-07-31T09:28:26.396Z,54144.00
2018-07-31T09:29:26.415Z,52224.00
2018-07-31T09:30:26.434Z,49216.00
2018-07-31T09:31:26.448Z,47808.00
2018-07-31T09:32:26.467Z,48640.00
2018-07-31T09:33:26.483Z,46112.00
2018-07-31T09:34:26.751Z,44256.00
2018-07-31T09:35:26.721Z,44320.00
2018-07-31T09:36:26.869Z,47072.00
2018-07-31T09:37:26.555Z,44800.00
2018-07-31T09:38:26.570Z,41248.00
2018-07-31T09:39:26.590Z,40544.00
2018-07-31T09:40:26.607Z,40096.00
2018-07-31T09:41:26.624Z,37280.00
2018-07-31T09:42:26.640Z,35040.00
2018-07-31T09:43:26.657Z,36352.00
2018-07-31T09:44:26.674Z,38592.00
2018-07-31T09:45:26.693Z,39296.00
2018-07-31T09:46:26.708Z,38496.00
2018-07-31T09:47:26.725Z,37760.00
2018-07-31T09:48:26.783Z,38432.00
2018-07-31T09:49:26.760Z,36704.00
2018-07-31T09:50:26.885Z,32544.00
2018-07-31T09:51:26.835Z,32800.00
2018-07-31T09:52:27.049Z,34496.00
2018-07-31T09:53:26.962Z,33312.00
2018-07-31T09:54:26.890Z,33856.00
2018-07-31T09:55:26.857Z,33440.00
2018-07-31T09:56:26.874Z,30912.00
2018-07-31T09:57:26.890Z,30272.00
2018-07-31T09:58:26.911Z,30368.00
2018-07-31T09:59:26.923Z,30336.00
2018-07-31T10:00:26.938Z,27168.00
2018-07-31T10:01:26.957Z,27232.00
2018-07-31T10:02:26.977Z,27520.00
2018-07-31T10:03:26.986Z,26816.00
2018-07-31T10:04:27.004Z,28128.00
2018-07-31T10:05:27.021Z,26304.00
2018-07-31T10:06:27.035Z,23680.00
2018-07-31T10:07:27.052Z,23744.00
2018-07-31T10:08:27.067Z,24256.00
2018-07-31T10:09:27.085Z,23488.00
2018-07-31T10:10:27.158Z,24000.00
2018-07-31T10:11:27.115Z,25184.00
2018-07-31T10:12:27.133Z,22304.00
2018-07-31T10:13:27.150Z,24576.00
2018-07-31T10:14:27.164Z,22624.00
2018-07-31T10:15:27.183Z,18272.00
2018-07-31T10:16:27.199Z,19424.00
2018-07-31T10:17:27.216Z,18464.00
2018-07-31T10:18:27.251Z,18336.00
2018-07-31T10:19:27.249Z,18432.00
2018-07-31T10:20:27.336Z,18144.00
2018-07-31T10:21:27.368Z,18112.00
2018-07-31T10:22:27.294Z,19648.00
2018-07-31T10:23:27.369Z,20320.00
2018-07-31T10:24:27.595Z,19584.00
2018-07-31T10:25:27.366Z,19200.00
2018-07-31T10:26:27.357Z,20000.00
2018-07-31T10:27:27.372Z,24224.00
2018-07-31T10:28:27.390Z,18752.00
2018-07-31T10:29:27.405Z,10592.00
2018-07-31T10:30:27.421Z,8792.00
2018-07-31T10:31:27.436Z,8172.00
2018-07-31T10:32:27.452Z,8140.00
2018-07-31T10:33:27.469Z,7848.00
2018-07-31T10:34:27.487Z,7692.00
2018-07-31T10:35:27.506Z,7588.00
2018-07-31T10:36:27.515Z,7492.00
2018-07-31T10:37:27.535Z,7444.00
2018-07-31T10:38:27.547Z,7360.00
2018-07-31T10:39:27.562Z,7328.00
2018-07-31T10:40:27.658Z,7292.00
2018-07-31T10:41:27.595Z,7248.00
2018-07-31T10:42:27.609Z,7268.00
2018-07-31T10:43:27.623Z,7204.00
2018-07-31T10:44:27.639Z,7152.00
2018-07-31T10:45:27.657Z,7124.00
2018-07-31T10:46:27.738Z,7032.00
2018-07-31T10:47:27.685Z,7044.00
2018-07-31T10:48:27.701Z,6984.00
2018-07-31T10:49:27.717Z,6964.00
2018-07-31T10:50:27.732Z,6880.00
2018-07-31T10:51:27.748Z,6860.00
2018-07-31T10:52:27.762Z,6836.00
2018-07-31T10:53:27.782Z,6856.00
2018-07-31T10:54:27.791Z,6856.00
2018-07-31T10:55:27.807Z,6832.00
2018-07-31T10:56:28.053Z,6824.00
2018-07-31T10:57:27.837Z,6812.00
2018-07-31T10:58:27.904Z,6824.00
2018-07-31T10:59:27.868Z,6840.00
2018-07-31T11:00:27.931Z,6860.00
2018-07-31T11:01:27.901Z,6912.00
2018-07-31T11:02:27.912Z,6972.00
2018-07-31T11:03:27.929Z,6992.00
2018-07-31T11:04:27.944Z,6956.00
2018-07-31T11:05:27.960Z,6976.00
2018-07-31T11:06:27.985Z,6996.00
2018-07-31T11:07:27.990Z,6992.00
2018-07-31T11:08:28.010Z,6980.00
2018-07-31T11:09:28.023Z,6908.00
2018-07-31T11:10:28.061Z,6976.00
2018-07-31T11:11:28.051Z,7004.00
2018-07-31T11:12:28.066Z,7048.00
2018-07-31T11:13:28.084Z,7064.00
2018-07-31T11:14:28.095Z,7112.00
2018-07-31T11:15:28.112Z,7160.00
2018-07-31T11:16:28.208Z,7224.00
2018-07-31T11:17:28.164Z,7252.00
2018-07-31T11:18:28.158Z,7292.00
2018-07-31T11:19:28.196Z,7328.00
2018-07-31T11:20:28.208Z,7316.00
2018-07-31T11:21:28.204Z,7316.00
2018-07-31T11:22:28.561Z,7392.00
2018-07-31T11:23:28.238Z,7464.00
2018-07-31T11:24:28.251Z,7564.00
2018-07-31T11:25:28.272Z,7564.00
2018-07-31T11:26:28.282Z,7504.00
2018-07-31T11:27:28.348Z,7484.00
2018-07-31T11:28:28.371Z,7484.00
2018-07-31T11:29:28.328Z,7472.00
2018-07-31T11:30:28.397Z,7452.00
2018-07-31T11:31:28.358Z,7452.00
2018-07-31T11:32:28.623Z,7448.00
2018-07-31T11:33:28.391Z,7448.00
2018-07-31T11:34:28.409Z,7504.00
2018-07-31T11:36:01.631Z,7600.00
2018-07-31T11:36:28.436Z,7568.00
2018-07-31T11:37:28.455Z,7568.00
2018-07-31T11:38:28.470Z,7572.00
2018-07-31T11:39:28.483Z,7556.00
2018-07-31T11:40:28.498Z,7576.00
2018-07-31T11:41:28.513Z,7548.00
2018-07-31T11:42:28.529Z,7536.00
2018-07-31T11:43:28.544Z,7564.00
2018-07-31T11:44:28.561Z,7592.00
2018-07-31T11:45:28.575Z,7564.00
2018-07-31T11:46:28.590Z,7548.00
2018-07-31T11:47:28.608Z,7600.00
2018-07-31T11:48:28.623Z,7612.00
2018-07-31T11:49:28.638Z,7660.00
2018-07-31T11:50:28.654Z,7708.00
2018-07-31T11:51:28.669Z,7700.00
2018-07-31T11:52:28.719Z,7736.00
2018-07-31T11:53:28.700Z,7816.00
2018-07-31T11:54:28.715Z,7844.00
2018-07-31T11:55:28.730Z,7832.00
2018-07-31T11:56:28.747Z,7880.00
2018-07-31T11:57:28.762Z,7896.00
2018-07-31T11:58:28.776Z,7876.00
2018-07-31T11:59:28.792Z,7940.00
2018-07-31T12:00:28.807Z,7960.00
2018-07-31T12:01:28.824Z,7968.00
2018-07-31T12:02:28.838Z,7972.00
2018-07-31T12:03:28.855Z,8064.00
2018-07-31T12:04:28.871Z,8048.00
2018-07-31T12:05:28.883Z,8044.00
2018-07-31T12:06:28.898Z,8096.00
2018-07-31T12:07:28.912Z,8080.00
2018-07-31T12:08:28.954Z,8068.00
2018-07-31T12:09:28.943Z,8068.00
2018-07-31T12:10:28.957Z,8096.00
2018-07-31T12:11:28.976Z,8084.00
2018-07-31T12:12:28.986Z,8096.00
2018-07-31T12:13:29.001Z,8084.00
2018-07-31T12:14:29.014Z,8112.00
2018-07-31T12:15:29.029Z,8128.00
2018-07-31T12:16:29.044Z,8104.00
2018-07-31T12:17:29.059Z,8072.00
2018-07-31T12:18:29.075Z,8056.00
2018-07-31T12:19:29.085Z,8052.00
2018-07-31T12:20:29.100Z,8084.00
2018-07-31T12:21:29.115Z,8108.00
2018-07-31T12:22:29.154Z,8080.00
2018-07-31T12:23:29.157Z,7976.00